Accueil
METAR-TAF:

METAR-TAF

Aéroports :

Capo Mele

Andora, Italie

latitude: 43-57N, longitude: 008-10E, altitude: 220 m

Observation

Le bulletin a été fait il y a 30 minutes, à 23:55 UTC
Vent 12 kt de nord
Température 12°C
Humidité 62%
Pression 1006 hPa
Visibilité 10 km ou plus
Quelques nuages à une hauteur de 2500 ft

METAR: LIMU 112355Z 01012KT 9999 FEW025 12/05 Q1006 RMK BKN BKN080 QUK / QUL / VIS MAR 20 KM VIS MIN 9999

Heure: 01:25 (00:25 UTC)


TAF: absent

Observations et prévisions météorologiques de plus de 4000 aéroports (messages METAR et TAF).

Les stations disponibles sont représentées par des disques jaunes et rouges sur la carte.

Passer la souris dessus pour voir le nom de la station.

Cliquer dessus pour voir les observations et prévisions météorologiques.

Pour changer de carte: cliquez sur les boutons verts avec une croix noire pour zoomer, sur le bouton vert avec un tiret pour effectuer un zoom arrière, ou sur les flèches vertes pour les cartes adjacentes.


METAR-TAF: